createdAt,value
2023-04-05T00:01:28.598Z,1.66
2023-04-05T00:04:53.832Z,1.66
2023-04-05T00:08:18.974Z,1.69
2023-04-05T00:11:44.156Z,1.71
2023-04-05T00:15:09.280Z,1.69
2023-04-05T00:18:34.641Z,1.68
2023-04-05T00:21:59.549Z,1.72
2023-04-05T00:25:24.707Z,1.7
2023-04-05T00:28:49.876Z,1.63
2023-04-05T00:32:15.022Z,1.61
2023-04-05T00:35:40.189Z,1.63
2023-04-05T00:39:05.308Z,1.62
2023-04-05T00:42:30.468Z,1.59
2023-04-05T00:45:55.649Z,1.58
2023-04-05T00:49:20.741Z,1.59
2023-04-05T00:52:45.870Z,1.6
2023-04-05T00:56:11.022Z,1.62
2023-04-05T00:59:36.195Z,1.58
2023-04-05T01:03:01.355Z,1.54
2023-04-05T01:06:26.451Z,1.51
2023-04-05T01:09:51.617Z,1.52
2023-04-05T01:13:16.764Z,1.49
2023-04-05T01:16:41.920Z,1.46
2023-04-05T01:20:07.078Z,1.46
2023-04-05T01:23:32.191Z,1.5
2023-04-05T01:26:57.358Z,1.51
2023-04-05T01:30:22.506Z,1.48
2023-04-05T01:33:47.639Z,1.44
2023-04-05T01:37:12.834Z,1.4
2023-04-05T01:40:37.975Z,1.32
2023-04-05T01:44:03.106Z,1.29
2023-04-05T01:47:28.296Z,1.31
2023-04-05T01:50:53.393Z,1.33
2023-04-05T01:54:18.567Z,1.35
2023-04-05T01:57:43.681Z,1.36
2023-04-05T02:01:08.917Z,1.34
2023-04-05T02:04:34.033Z,1.36
2023-04-05T02:07:59.183Z,1.33
2023-04-05T02:11:24.353Z,1.32
2023-04-05T02:14:49.463Z,1.29
2023-04-05T02:18:14.616Z,1.29
2023-04-05T02:21:39.753Z,1.3
2023-04-05T02:25:04.907Z,1.32
2023-04-05T02:28:30.110Z,1.27
2023-04-05T02:31:55.208Z,1.21
2023-04-05T02:35:20.380Z,1.15
2023-04-05T02:38:45.503Z,1.16
2023-04-05T02:42:10.604Z,1.15
2023-04-05T02:45:35.784Z,1.06
2023-04-05T02:49:00.899Z,1
2023-04-05T02:52:26.043Z,1.05
2023-04-05T02:55:51.202Z,1.06
2023-04-05T02:59:16.347Z,1.09
2023-04-05T03:02:41.543Z,1.08
2023-04-05T03:06:06.665Z,1.02
2023-04-05T03:09:31.807Z,1
2023-04-05T03:12:56.947Z,1.01
2023-04-05T03:16:22.110Z,1.05
2023-04-05T03:19:47.285Z,1.05
2023-04-05T03:23:12.408Z,1.05
2023-04-05T03:26:37.562Z,1.02
2023-04-05T03:30:02.712Z,0.99
2023-04-05T03:33:27.843Z,0.97
2023-04-05T03:36:53.014Z,0.93
2023-04-05T03:40:18.151Z,0.93
2023-04-05T03:43:43.288Z,0.98
2023-04-05T03:47:08.432Z,1.03
2023-04-05T03:50:33.593Z,1.04
2023-04-05T03:53:58.742Z,1.07
2023-04-05T03:57:23.852Z,1.1
2023-04-05T04:00:49.000Z,1.16
2023-04-05T04:04:14.157Z,1.16
2023-04-05T04:07:39.308Z,1.22
2023-04-05T04:11:04.473Z,1.3
2023-04-05T04:14:29.602Z,1.4
2023-04-05T04:17:54.732Z,1.49
2023-04-05T04:21:19.898Z,1.58
2023-04-05T04:24:45.086Z,1.67
2023-04-05T04:28:10.252Z,1.74
2023-04-05T04:31:35.384Z,1.79
2023-04-05T04:35:00.500Z,1.87
2023-04-05T04:38:25.637Z,1.92
2023-04-05T04:41:50.809Z,1.93
2023-04-05T04:45:15.985Z,1.98
2023-04-05T04:48:41.116Z,2.06
2023-04-05T04:52:06.266Z,2.1
2023-04-05T04:55:31.411Z,2.14
2023-04-05T04:58:56.598Z,2.19
2023-04-05T05:02:21.717Z,2.21
2023-04-05T05:05:46.876Z,2.27
2023-04-05T05:09:12.014Z,2.25
2023-04-05T05:12:37.255Z,2.27
2023-04-05T05:16:02.387Z,2.28
2023-04-05T05:19:27.557Z,2.26
2023-04-05T05:22:52.696Z,2.26
2023-04-05T05:26:17.810Z,2.25
2023-04-05T05:29:42.967Z,2.2
2023-04-05T05:33:08.133Z,2.17
2023-04-05T05:36:33.287Z,2.16
2023-04-05T05:39:58.425Z,2.2
2023-04-05T05:43:23.575Z,2.25
2023-04-05T05:46:48.776Z,2.29
2023-04-05T05:50:13.883Z,2.36
2023-04-05T05:53:39.080Z,2.44
2023-04-05T05:57:04.205Z,2.5
2023-04-05T06:00:29.360Z,2.52
2023-04-05T06:03:54.515Z,2.61
2023-04-05T06:07:19.649Z,2.72
2023-04-05T06:10:44.842Z,2.84
2023-04-05T06:14:09.957Z,3.02
2023-04-05T06:17:35.141Z,3.18
2023-04-05T06:21:00.271Z,3.37
2023-04-05T06:24:25.438Z,3.55
2023-04-05T06:27:50.625Z,3.7
2023-04-05T06:31:15.885Z,3.81
2023-04-05T06:34:41.649Z,3.87
2023-04-05T06:38:06.807Z,3.97
2023-04-05T06:41:31.976Z,4.07
2023-04-05T06:44:57.176Z,4.2
2023-04-05T06:48:22.340Z,4.34
2023-04-05T06:51:47.611Z,4.45
2023-04-05T06:55:12.778Z,4.52
2023-04-05T06:58:37.942Z,4.6
2023-04-05T07:02:03.147Z,4.64
2023-04-05T07:05:28.278Z,4.62
2023-04-05T07:08:53.423Z,4.68
2023-04-05T07:12:18.562Z,4.76
2023-04-05T07:15:43.797Z,4.88
2023-04-05T07:19:08.928Z,4.98
2023-04-05T07:22:34.083Z,5.05
2023-04-05T07:25:59.241Z,5.13
2023-04-05T07:29:24.390Z,5.22
2023-04-05T07:32:49.598Z,5.34
2023-04-05T07:36:14.801Z,5.44
2023-04-05T07:39:39.894Z,5.51
2023-04-05T07:43:05.091Z,5.58
2023-04-05T07:46:30.270Z,5.67
2023-04-05T07:49:55.390Z,5.8
2023-04-05T07:53:20.578Z,5.96
2023-04-05T07:56:45.722Z,6.06
2023-04-05T08:00:10.878Z,6.2
2023-04-05T08:03:36.095Z,6.35
2023-04-05T08:07:01.273Z,6.44
2023-04-05T08:10:26.497Z,6.52
2023-04-05T08:13:52.338Z,6.55
2023-04-05T08:17:17.567Z,6.53
2023-04-05T08:20:43.608Z,6.6
2023-04-05T08:24:08.651Z,6.64
2023-04-05T08:27:33.860Z,6.61
2023-04-05T08:30:59.004Z,6.6
2023-04-05T08:34:24.163Z,6.6
2023-04-05T08:37:49.350Z,6.55
2023-04-05T08:41:14.565Z,6.65
2023-04-05T08:44:39.762Z,6.77
2023-04-05T08:48:05.006Z,6.78
2023-04-05T08:51:30.150Z,6.69
2023-04-05T08:54:55.356Z,6.62
2023-04-05T08:58:20.538Z,6.61
2023-04-05T09:01:45.825Z,6.6
2023-04-05T09:05:10.984Z,6.62
2023-04-05T09:08:36.162Z,6.69
2023-04-05T09:12:01.434Z,6.68
2023-04-05T09:15:26.651Z,6.63
2023-04-05T09:18:51.886Z,6.63
2023-04-05T09:22:17.071Z,6.57
2023-04-05T09:25:42.242Z,6.58
2023-04-05T09:29:07.390Z,6.62
2023-04-05T09:32:32.642Z,6.61
2023-04-05T09:35:57.887Z,6.68
2023-04-05T09:39:23.022Z,6.78
2023-04-05T09:42:48.220Z,6.7
2023-04-05T09:46:13.497Z,6.65
2023-04-05T09:49:38.716Z,6.64
2023-04-05T09:53:03.983Z,6.57
2023-04-05T09:56:29.247Z,6.62
2023-04-05T09:59:54.468Z,6.7
2023-04-05T10:03:19.718Z,6.76
2023-04-05T10:06:44.888Z,6.74
2023-04-05T10:10:10.127Z,6.78
2023-04-05T10:13:35.363Z,6.84
2023-04-05T10:17:00.696Z,6.93
2023-04-05T10:20:25.971Z,7.02
2023-04-05T10:23:51.171Z,7.07
2023-04-05T10:27:16.390Z,7.21
2023-04-05T10:30:41.708Z,7.31
2023-04-05T10:34:06.793Z,7.36
2023-04-05T10:37:31.915Z,7.42
2023-04-05T10:40:57.167Z,7.54
2023-04-05T10:44:26.036Z,7.81
2023-04-05T10:47:47.667Z,8.16
2023-04-05T10:51:12.747Z,8.43
2023-04-05T10:54:38.016Z,8.68
2023-04-05T10:58:03.203Z,8.88
2023-04-05T11:01:28.613Z,8.99
2023-04-05T11:04:53.750Z,8.97
2023-04-05T11:08:19.037Z,8.96
2023-04-05T11:11:44.213Z,8.89
2023-04-05T11:15:09.412Z,8.86
2023-04-05T11:18:35.069Z,8.84
2023-04-05T11:22:01.166Z,8.82
2023-04-05T11:25:26.382Z,8.91
2023-04-05T11:28:51.608Z,9.13
2023-04-05T11:32:16.804Z,9.27
2023-04-05T11:35:42.701Z,9.43
2023-04-05T11:39:07.839Z,9.52
2023-04-05T11:42:33.055Z,9.6
2023-04-05T11:45:58.271Z,9.58
2023-04-05T11:49:23.499Z,9.57
2023-04-05T11:52:48.890Z,9.51
2023-04-05T11:56:14.188Z,9.57
2023-04-05T11:59:39.560Z,9.53
2023-04-05T12:03:04.967Z,9.46
2023-04-05T12:06:30.256Z,9.43
2023-04-05T12:09:55.641Z,9.49
2023-04-05T12:13:20.976Z,9.59
2023-04-05T12:16:46.463Z,9.74
2023-04-05T12:20:11.880Z,9.84
2023-04-05T12:23:37.446Z,9.88
2023-04-05T12:27:02.714Z,9.96
2023-04-05T12:30:28.207Z,9.92
2023-04-05T12:33:53.660Z,9.83
2023-04-05T12:37:19.132Z,9.89
2023-04-05T12:40:44.903Z,9.92
2023-04-05T12:44:10.480Z,9.94
2023-04-05T12:47:35.867Z,9.9
2023-04-05T12:51:01.198Z,9.86
2023-04-05T12:54:26.623Z,9.88
2023-04-05T12:57:51.981Z,9.8
2023-04-05T13:01:17.468Z,9.61
2023-04-05T13:04:43.006Z,9.48
2023-04-05T13:08:08.937Z,9.38
2023-04-05T13:11:34.848Z,9.23
2023-04-05T13:15:03.124Z,9.16
2023-04-05T13:18:30.193Z,9.04
2023-04-05T13:21:55.678Z,8.88
2023-04-05T13:25:21.269Z,8.76
2023-04-05T13:28:47.122Z,8.67
2023-04-05T13:32:12.817Z,8.61
2023-04-05T13:35:38.499Z,8.55
2023-04-05T13:39:04.069Z,8.42
2023-04-05T13:42:29.608Z,8.41
2023-04-05T13:45:55.208Z,8.4
2023-04-05T13:49:20.755Z,8.42
2023-04-05T13:52:46.310Z,8.4
2023-04-05T13:56:11.787Z,8.34
2023-04-05T13:59:37.418Z,8.36
2023-04-05T14:03:02.871Z,8.43
2023-04-05T14:06:28.366Z,8.59
2023-04-05T14:09:54.001Z,8.7
2023-04-05T14:13:19.477Z,8.61
2023-04-05T14:16:45.198Z,8.59
2023-04-05T14:20:11.168Z,8.62
2023-04-05T14:23:36.560Z,8.55
2023-04-05T14:27:01.865Z,8.48
2023-04-05T14:30:27.116Z,8.41
2023-04-05T14:33:52.399Z,8.35
2023-04-05T14:37:17.642Z,8.27
2023-04-05T14:40:43.028Z,8.18
2023-04-05T14:44:08.232Z,8.17
2023-04-05T14:47:33.467Z,8.18
2023-04-05T14:50:58.692Z,8.2
2023-04-05T14:54:23.951Z,8.29
2023-04-05T14:57:49.132Z,8.34
2023-04-05T15:01:14.364Z,8.31
2023-04-05T15:04:39.506Z,8.28
2023-04-05T15:39:48.073Z,5.73
2023-04-05T15:43:13.293Z,6.67
2023-04-05T15:46:38.548Z,6.92
2023-04-05T15:50:03.729Z,7.11
2023-04-05T15:53:28.963Z,7.26
2023-04-05T15:56:54.227Z,7.47
2023-04-05T16:00:19.848Z,7.71
2023-04-05T16:03:45.168Z,7.87
2023-04-05T16:07:11.108Z,8
2023-04-05T16:10:36.417Z,8.05
2023-04-05T16:14:01.841Z,8.07
2023-04-05T16:17:27.147Z,8.04
2023-04-05T16:20:52.324Z,8.06
2023-04-05T16:24:17.601Z,8.1
2023-04-05T16:27:42.843Z,8.15
2023-04-05T16:31:08.634Z,8.17
2023-04-05T16:34:33.805Z,8.12
2023-04-05T16:37:59.025Z,8.05
2023-04-05T16:41:24.234Z,7.87
2023-04-05T16:44:49.754Z,7.74
2023-04-05T16:48:15.612Z,7.65
2023-04-05T16:51:40.719Z,7.59
2023-04-05T16:55:05.893Z,7.53
2023-04-05T16:58:31.091Z,7.49
2023-04-05T17:01:56.276Z,7.42
2023-04-05T17:05:21.470Z,7.37
2023-04-05T17:08:46.627Z,7.34
2023-04-05T17:12:12.320Z,7.25
2023-04-05T17:15:37.014Z,7.14
2023-04-05T17:19:02.443Z,6.98
2023-04-05T17:22:27.455Z,6.84
2023-04-05T17:25:52.931Z,6.74
2023-04-05T17:29:18.121Z,6.62
2023-04-05T17:32:43.324Z,6.48
2023-04-05T17:36:08.554Z,6.29
2023-04-05T17:39:33.693Z,6.17
2023-04-05T17:42:58.844Z,6.16
2023-04-05T17:46:30.589Z,6.17
2023-04-05T17:49:49.212Z,6.22
2023-04-05T17:53:14.405Z,6.25
2023-04-05T17:56:39.589Z,6.35
2023-04-05T18:00:04.743Z,6.47
2023-04-05T18:03:30.023Z,6.6
2023-04-05T18:06:55.139Z,6.66
2023-04-05T18:10:20.324Z,6.67
2023-04-05T18:13:45.496Z,6.63
2023-04-05T18:17:10.695Z,6.63
2023-04-05T18:20:35.847Z,6.6
2023-04-05T18:24:01.015Z,6.57
2023-04-05T18:27:26.219Z,6.52
2023-04-05T18:30:51.472Z,6.43
2023-04-05T18:34:16.613Z,6.32
2023-04-05T18:37:41.751Z,6.21
2023-04-05T18:41:06.910Z,6.15
2023-04-05T18:44:32.067Z,6.06
2023-04-05T18:47:57.329Z,5.99
2023-04-05T18:51:22.433Z,5.93
2023-04-05T18:54:47.600Z,5.84
2023-04-05T18:58:12.829Z,5.75
2023-04-05T19:01:38.053Z,5.65
2023-04-05T19:05:03.272Z,5.55
2023-04-05T19:08:28.336Z,5.44
2023-04-05T19:11:53.516Z,5.42
2023-04-05T19:15:18.667Z,5.41
2023-04-05T19:18:43.847Z,5.42
2023-04-05T19:22:09.066Z,5.45
2023-04-05T19:25:34.202Z,5.46
2023-04-05T19:28:59.359Z,5.52
2023-04-05T19:32:24.598Z,5.61
2023-04-05T19:35:49.778Z,5.71
2023-04-05T19:39:14.980Z,5.79
2023-04-05T19:42:40.121Z,5.86
2023-04-05T19:46:05.330Z,5.91
2023-04-05T19:49:30.452Z,5.96
2023-04-05T19:52:55.781Z,6.03
2023-04-05T19:56:21.001Z,6.1
2023-04-05T19:59:46.155Z,6.19
2023-04-05T20:03:11.353Z,6.28
2023-04-05T20:06:36.511Z,6.37
2023-04-05T20:10:01.689Z,6.49
2023-04-05T20:13:26.887Z,6.6
2023-04-05T20:16:52.076Z,6.69
2023-04-05T20:20:17.213Z,6.78
2023-04-05T20:23:42.361Z,6.84
2023-04-05T20:27:07.552Z,6.9
2023-04-05T20:30:32.752Z,6.95
2023-04-05T20:33:57.893Z,6.94
2023-04-05T20:37:23.071Z,6.94
2023-04-05T20:40:48.257Z,6.9
2023-04-05T20:44:13.475Z,6.84
2023-04-05T20:47:38.648Z,6.82
2023-04-05T20:51:03.755Z,6.79
2023-04-05T20:54:28.922Z,6.74
2023-04-05T20:57:54.083Z,6.7
2023-04-05T21:01:19.243Z,6.7
2023-04-05T21:04:44.418Z,6.7
2023-04-05T21:08:09.562Z,6.7
2023-04-05T21:11:34.744Z,6.68
2023-04-05T21:14:59.902Z,6.67
2023-04-05T21:18:25.070Z,6.65
2023-04-05T21:21:50.308Z,6.61
2023-04-05T21:25:15.464Z,6.56
2023-04-05T21:28:40.642Z,6.55
2023-04-05T21:32:05.809Z,6.52
2023-04-05T21:35:30.982Z,6.48
2023-04-05T21:38:56.143Z,6.47
2023-04-05T21:42:21.294Z,6.47
2023-04-05T21:45:46.475Z,6.44
2023-04-05T21:49:11.635Z,6.4
2023-04-05T21:52:36.769Z,6.34
2023-04-05T21:56:01.964Z,6.25
2023-04-05T21:59:27.129Z,6.17
2023-04-05T22:02:52.292Z,6.12
2023-04-05T22:06:17.449Z,6.04
2023-04-05T22:09:42.644Z,5.97
2023-04-05T22:13:07.864Z,5.9
2023-04-05T22:16:33.045Z,5.82
2023-04-05T22:19:58.194Z,5.73
2023-04-05T22:23:23.362Z,5.64
2023-04-05T22:26:48.530Z,5.55
2023-04-05T22:30:13.748Z,5.37
2023-04-05T22:33:38.885Z,5.18
2023-04-05T22:37:04.051Z,5.07
2023-04-05T22:40:29.195Z,4.98
2023-04-05T22:43:54.346Z,4.93
2023-04-05T22:47:19.550Z,4.86
2023-04-05T22:50:44.678Z,4.82
2023-04-05T22:54:09.846Z,4.81
2023-04-05T22:57:34.992Z,4.8
2023-04-05T23:01:00.224Z,4.78
2023-04-05T23:04:25.410Z,4.77
2023-04-05T23:07:50.504Z,4.76
2023-04-05T23:11:15.664Z,4.75
2023-04-05T23:14:40.858Z,4.72
2023-04-05T23:18:06.226Z,4.67
2023-04-05T23:21:31.226Z,4.63
2023-04-05T23:24:56.344Z,4.54
2023-04-05T23:28:21.498Z,4.44
2023-04-05T23:31:46.697Z,4.33
2023-04-05T23:35:11.834Z,4.21
2023-04-05T23:38:37.023Z,4.13
2023-04-05T23:42:02.171Z,4.05
2023-04-05T23:45:27.340Z,4.07
2023-04-05T23:48:52.499Z,4.09
2023-04-05T23:52:17.664Z,4.11
2023-04-05T23:55:42.881Z,4.1
2023-04-05T23:59:08.229Z,4.08
